sensor_id;sensor_type;location;lat;lon;timestamp;temperature;humidity
3736;DHT22;1883;48.202;16.310;2024-02-16T00:00:23;7.00;51.80
3736;DHT22;1883;48.202;16.310;2024-02-16T00:02:50;7.00;52.00
3736;DHT22;1883;48.202;16.310;2024-02-16T00:05:26;6.90;52.00
3736;DHT22;1883;48.202;16.310;2024-02-16T00:07:55;6.90;51.90
3736;DHT22;1883;48.202;16.310;2024-02-16T00:10:27;6.80;51.90
3736;DHT22;1883;48.202;16.310;2024-02-16T00:13:00;6.80;51.90
3736;DHT22;1883;48.202;16.310;2024-02-16T00:15:27;6.80;51.80
3736;DHT22;1883;48.202;16.310;2024-02-16T00:17:54;6.80;51.80
3736;DHT22;1883;48.202;16.310;2024-02-16T00:20:36;6.80;51.80
3736;DHT22;1883;48.202;16.310;2024-02-16T00:23:05;6.70;51.70
3736;DHT22;1883;48.202;16.310;2024-02-16T00:25:46;6.70;51.70
3736;DHT22;1883;48.202;16.310;2024-02-16T00:28:13;6.70;51.60
3736;DHT22;1883;48.202;16.310;2024-02-16T00:30:44;6.60;51.60
3736;DHT22;1883;48.202;16.310;2024-02-16T00:33:12;6.70;51.40
3736;DHT22;1883;48.202;16.310;2024-02-16T00:35:41;6.70;51.40
3736;DHT22;1883;48.202;16.310;2024-02-16T00:38:09;6.60;51.40
3736;DHT22;1883;48.202;16.310;2024-02-16T00:40:36;6.60;51.40
3736;DHT22;1883;48.202;16.310;2024-02-16T00:43:09;6.60;51.40
3736;DHT22;1883;48.202;16.310;2024-02-16T00:45:38;6.60;51.40
3736;DHT22;1883;48.202;16.310;2024-02-16T00:48:23;6.60;51.30
3736;DHT22;1883;48.202;16.310;2024-02-16T00:50:56;6.60;51.20
3736;DHT22;1883;48.202;16.310;2024-02-16T00:53:23;6.60;51.40
3736;DHT22;1883;48.202;16.310;2024-02-16T00:55:52;6.50;51.40
3736;DHT22;1883;48.202;16.310;2024-02-16T00:58:20;6.50;51.40
3736;DHT22;1883;48.202;16.310;2024-02-16T01:00:49;6.50;51.30
3736;DHT22;1883;48.202;16.310;2024-02-16T01:03:16;6.40;51.30
3736;DHT22;1883;48.202;16.310;2024-02-16T01:05:43;6.50;51.20
3736;DHT22;1883;48.202;16.310;2024-02-16T01:08:11;6.40;51.10
3736;DHT22;1883;48.202;16.310;2024-02-16T01:10:39;6.40;51.20
3736;DHT22;1883;48.202;16.310;2024-02-16T01:13:07;6.40;51.00
3736;DHT22;1883;48.202;16.310;2024-02-16T01:15:34;6.50;51.00
3736;DHT22;1883;48.202;16.310;2024-02-16T01:18:03;6.50;51.20
3736;DHT22;1883;48.202;16.310;2024-02-16T01:20:38;6.40;51.10
3736;DHT22;1883;48.202;16.310;2024-02-16T01:23:07;6.40;51.10
3736;DHT22;1883;48.202;16.310;2024-02-16T01:25:37;6.40;51.10
3736;DHT22;1883;48.202;16.310;2024-02-16T01:28:05;6.40;51.10
3736;DHT22;1883;48.202;16.310;2024-02-16T01:30:33;6.40;51.10
3736;DHT22;1883;48.202;16.310;2024-02-16T01:32:59;6.40;51.20
3736;DHT22;1883;48.202;16.310;2024-02-16T01:35:27;6.40;51.10
3736;DHT22;1883;48.202;16.310;2024-02-16T01:37:54;6.30;51.10
3736;DHT22;1883;48.202;16.310;2024-02-16T01:40:22;6.30;51.20
3736;DHT22;1883;48.202;16.310;2024-02-16T01:42:54;6.20;51.10
3736;DHT22;1883;48.202;16.310;2024-02-16T01:45:21;6.20;51.00
3736;DHT22;1883;48.202;16.310;2024-02-16T01:47:52;6.20;50.90
3736;DHT22;1883;48.202;16.310;2024-02-16T01:50:20;6.20;51.00
3736;DHT22;1883;48.202;16.310;2024-02-16T01:52:49;6.20;51.00
3736;DHT22;1883;48.202;16.310;2024-02-16T01:55:20;6.10;50.80
3736;DHT22;1883;48.202;16.310;2024-02-16T01:57:49;6.20;50.90
3736;DHT22;1883;48.202;16.310;2024-02-16T02:00:17;6.10;50.90
3736;DHT22;1883;48.202;16.310;2024-02-16T02:02:45;6.10;50.80
3736;DHT22;1883;48.202;16.310;2024-02-16T02:05:12;6.10;50.90
3736;DHT22;1883;48.202;16.310;2024-02-16T02:07:41;6.10;50.90
3736;DHT22;1883;48.202;16.310;2024-02-16T02:10:10;6.10;50.90
3736;DHT22;1883;48.202;16.310;2024-02-16T02:12:39;6.00;50.80
3736;DHT22;1883;48.202;16.310;2024-02-16T02:15:08;6.10;50.90
3736;DHT22;1883;48.202;16.310;2024-02-16T02:17:39;6.10;50.90
3736;DHT22;1883;48.202;16.310;2024-02-16T02:20:11;6.10;51.00
3736;DHT22;1883;48.202;16.310;2024-02-16T02:22:40;6.10;50.90
3736;DHT22;1883;48.202;16.310;2024-02-16T02:25:09;6.10;50.80
3736;DHT22;1883;48.202;16.310;2024-02-16T02:27:37;6.10;51.00
3736;DHT22;1883;48.202;16.310;2024-02-16T02:30:05;6.10;51.00
3736;DHT22;1883;48.202;16.310;2024-02-16T02:32:32;6.10;50.90
3736;DHT22;1883;48.202;16.310;2024-02-16T02:35:01;6.10;51.00
3736;DHT22;1883;48.202;16.310;2024-02-16T02:37:30;6.10;51.10
3736;DHT22;1883;48.202;16.310;2024-02-16T02:39:59;6.10;51.00
3736;DHT22;1883;48.202;16.310;2024-02-16T02:42:26;6.10;50.90
3736;DHT22;1883;48.202;16.310;2024-02-16T02:44:53;6.10;51.10
3736;DHT22;1883;48.202;16.310;2024-02-16T02:47:21;6.10;51.10
3736;DHT22;1883;48.202;16.310;2024-02-16T02:49:48;6.10;51.10
3736;DHT22;1883;48.202;16.310;2024-02-16T02:52:16;6.20;51.20
3736;DHT22;1883;48.202;16.310;2024-02-16T02:54:43;6.10;51.10
3736;DHT22;1883;48.202;16.310;2024-02-16T02:57:11;6.10;51.20
3736;DHT22;1883;48.202;16.310;2024-02-16T02:59:38;6.10;51.20
3736;DHT22;1883;48.202;16.310;2024-02-16T03:02:05;6.10;51.10
3736;DHT22;1883;48.202;16.310;2024-02-16T03:04:32;6.10;51.00
3736;DHT22;1883;48.202;16.310;2024-02-16T03:06:59;6.00;50.90
3736;DHT22;1883;48.202;16.310;2024-02-16T03:09:26;6.00;50.70
3736;DHT22;1883;48.202;16.310;2024-02-16T03:11:53;6.00;50.60
3736;DHT22;1883;48.202;16.310;2024-02-16T03:14:22;5.90;50.60
3736;DHT22;1883;48.202;16.310;2024-02-16T03:16:49;5.90;50.50
3736;DHT22;1883;48.202;16.310;2024-02-16T03:19:16;5.90;50.40
3736;DHT22;1883;48.202;16.310;2024-02-16T03:21:43;6.00;50.30
3736;DHT22;1883;48.202;16.310;2024-02-16T03:24:10;5.90;50.50
3736;DHT22;1883;48.202;16.310;2024-02-16T03:26:37;5.90;50.30
3736;DHT22;1883;48.202;16.310;2024-02-16T03:29:04;6.00;50.40
3736;DHT22;1883;48.202;16.310;2024-02-16T03:31:32;6.00;50.50
3736;DHT22;1883;48.202;16.310;2024-02-16T03:34:00;5.80;50.50
3736;DHT22;1883;48.202;16.310;2024-02-16T03:36:26;5.80;50.30
3736;DHT22;1883;48.202;16.310;2024-02-16T03:38:53;5.80;50.40
3736;DHT22;1883;48.202;16.310;2024-02-16T03:41:22;5.80;50.40
3736;DHT22;1883;48.202;16.310;2024-02-16T03:43:50;5.80;50.30
3736;DHT22;1883;48.202;16.310;2024-02-16T03:46:17;5.90;50.40
3736;DHT22;1883;48.202;16.310;2024-02-16T03:48:45;5.90;50.50
3736;DHT22;1883;48.202;16.310;2024-02-16T03:51:12;5.80;50.20
3736;DHT22;1883;48.202;16.310;2024-02-16T03:53:39;5.80;50.40
3736;DHT22;1883;48.202;16.310;2024-02-16T03:56:06;5.80;50.40
3736;DHT22;1883;48.202;16.310;2024-02-16T03:58:33;5.80;50.40
3736;DHT22;1883;48.202;16.310;2024-02-16T04:01:00;5.80;50.50
3736;DHT22;1883;48.202;16.310;2024-02-16T04:03:27;5.80;50.40
3736;DHT22;1883;48.202;16.310;2024-02-16T04:05:55;5.80;50.50
3736;DHT22;1883;48.202;16.310;2024-02-16T04:08:22;5.80;50.60
3736;DHT22;1883;48.202;16.310;2024-02-16T04:10:49;5.70;50.60
3736;DHT22;1883;48.202;16.310;2024-02-16T04:13:16;5.70;50.40
3736;DHT22;1883;48.202;16.310;2024-02-16T04:15:43;5.60;50.60
3736;DHT22;1883;48.202;16.310;2024-02-16T04:18:10;5.60;50.60
3736;DHT22;1883;48.202;16.310;2024-02-16T04:20:36;5.60;50.50
3736;DHT22;1883;48.202;16.310;2024-02-16T04:23:08;5.70;50.60
3736;DHT22;1883;48.202;16.310;2024-02-16T04:25:35;5.70;50.60
3736;DHT22;1883;48.202;16.310;2024-02-16T04:28:02;5.70;50.60
3736;DHT22;1883;48.202;16.310;2024-02-16T04:30:29;5.60;50.60
3736;DHT22;1883;48.202;16.310;2024-02-16T04:32:56;5.60;50.70
3736;DHT22;1883;48.202;16.310;2024-02-16T04:35:24;5.60;50.70
3736;DHT22;1883;48.202;16.310;2024-02-16T04:37:51;5.60;50.70
3736;DHT22;1883;48.202;16.310;2024-02-16T04:40:19;5.60;50.80
3736;DHT22;1883;48.202;16.310;2024-02-16T04:42:46;5.60;50.70
3736;DHT22;1883;48.202;16.310;2024-02-16T04:45:21;5.60;50.60
3736;DHT22;1883;48.202;16.310;2024-02-16T04:47:48;5.50;50.80
3736;DHT22;1883;48.202;16.310;2024-02-16T04:50:15;5.50;50.80
3736;DHT22;1883;48.202;16.310;2024-02-16T04:52:42;5.50;50.80
3736;DHT22;1883;48.202;16.310;2024-02-16T04:55:09;5.50;50.90
3736;DHT22;1883;48.202;16.310;2024-02-16T04:57:38;5.40;50.70
3736;DHT22;1883;48.202;16.310;2024-02-16T05:00:06;5.40;50.80
3736;DHT22;1883;48.202;16.310;2024-02-16T05:02:35;5.40;50.70
3736;DHT22;1883;48.202;16.310;2024-02-16T05:05:03;5.40;50.70
3736;DHT22;1883;48.202;16.310;2024-02-16T05:07:31;5.40;50.80
3736;DHT22;1883;48.202;16.310;2024-02-16T05:09:58;5.40;50.80
3736;DHT22;1883;48.202;16.310;2024-02-16T05:12:25;5.50;50.90
3736;DHT22;1883;48.202;16.310;2024-02-16T05:14:53;5.40;50.90
3736;DHT22;1883;48.202;16.310;2024-02-16T05:17:20;5.40;50.80
3736;DHT22;1883;48.202;16.310;2024-02-16T05:19:48;5.40;50.90
3736;DHT22;1883;48.202;16.310;2024-02-16T05:22:15;5.40;50.80
3736;DHT22;1883;48.202;16.310;2024-02-16T05:24:44;5.30;50.80
3736;DHT22;1883;48.202;16.310;2024-02-16T05:27:12;5.40;50.70
3736;DHT22;1883;48.202;16.310;2024-02-16T05:29:43;5.40;50.70
3736;DHT22;1883;48.202;16.310;2024-02-16T05:32:11;5.40;50.80
3736;DHT22;1883;48.202;16.310;2024-02-16T05:34:38;5.40;50.70
3736;DHT22;1883;48.202;16.310;2024-02-16T05:37:04;5.40;50.70
3736;DHT22;1883;48.202;16.310;2024-02-16T05:39:33;5.40;50.70
3736;DHT22;1883;48.202;16.310;2024-02-16T05:42:02;5.30;50.80
3736;DHT22;1883;48.202;16.310;2024-02-16T05:44:35;5.30;50.60
3736;DHT22;1883;48.202;16.310;2024-02-16T05:47:03;5.30;50.60
3736;DHT22;1883;48.202;16.310;2024-02-16T05:49:31;5.30;50.60
3736;DHT22;1883;48.202;16.310;2024-02-16T05:51:58;5.40;50.60
3736;DHT22;1883;48.202;16.310;2024-02-16T05:54:43;5.30;50.60
3736;DHT22;1883;48.202;16.310;2024-02-16T05:57:10;5.40;50.70
3736;DHT22;1883;48.202;16.310;2024-02-16T05:59:40;5.30;50.70
3736;DHT22;1883;48.202;16.310;2024-02-16T06:02:08;5.30;50.70
3736;DHT22;1883;48.202;16.310;2024-02-16T06:04:38;5.40;50.60
3736;DHT22;1883;48.202;16.310;2024-02-16T06:07:05;5.40;50.90
3736;DHT22;1883;48.202;16.310;2024-02-16T06:09:34;5.40;50.70
3736;DHT22;1883;48.202;16.310;2024-02-16T06:12:03;5.60;50.80
3736;DHT22;1883;48.202;16.310;2024-02-16T06:14:32;5.50;50.90
3736;DHT22;1883;48.202;16.310;2024-02-16T06:17:07;5.50;51.20
3736;DHT22;1883;48.202;16.310;2024-02-16T06:19:34;5.50;51.10
3736;DHT22;1883;48.202;16.310;2024-02-16T06:22:03;5.50;51.20
3736;DHT22;1883;48.202;16.310;2024-02-16T06:24:37;5.40;51.20
3736;DHT22;1883;48.202;16.310;2024-02-16T06:27:04;5.40;51.00
3736;DHT22;1883;48.202;16.310;2024-02-16T06:29:33;5.50;51.00
3736;DHT22;1883;48.202;16.310;2024-02-16T06:32:02;5.50;50.90
3736;DHT22;1883;48.202;16.310;2024-02-16T06:34:30;5.50;51.10
3736;DHT22;1883;48.202;16.310;2024-02-16T06:36:57;5.50;50.80
3736;DHT22;1883;48.202;16.310;2024-02-16T06:39:28;5.50;50.80
3736;DHT22;1883;48.202;16.310;2024-02-16T06:41:58;5.60;51.00
3736;DHT22;1883;48.202;16.310;2024-02-16T06:44:26;5.60;51.10
3736;DHT22;1883;48.202;16.310;2024-02-16T06:46:53;5.70;51.00
3736;DHT22;1883;48.202;16.310;2024-02-16T06:49:21;5.70;51.10
3736;DHT22;1883;48.202;16.310;2024-02-16T06:51:54;5.70;51.30
3736;DHT22;1883;48.202;16.310;2024-02-16T06:54:29;5.70;51.30
3736;DHT22;1883;48.202;16.310;2024-02-16T06:57:00;5.80;51.40
3736;DHT22;1883;48.202;16.310;2024-02-16T06:59:28;5.80;51.50
3736;DHT22;1883;48.202;16.310;2024-02-16T07:01:55;5.80;51.70
3736;DHT22;1883;48.202;16.310;2024-02-16T07:04:23;5.80;51.60
3736;DHT22;1883;48.202;16.310;2024-02-16T07:06:51;5.80;51.70
3736;DHT22;1883;48.202;16.310;2024-02-16T07:09:34;5.90;51.80
3736;DHT22;1883;48.202;16.310;2024-02-16T07:12:02;6.00;52.00
3736;DHT22;1883;48.202;16.310;2024-02-16T07:14:31;6.10;52.00
3736;DHT22;1883;48.202;16.310;2024-02-16T07:16:59;6.20;52.20
3736;DHT22;1883;48.202;16.310;2024-02-16T07:19:27;6.30;52.40
3736;DHT22;1883;48.202;16.310;2024-02-16T07:21:54;6.30;52.50
3736;DHT22;1883;48.202;16.310;2024-02-16T07:24:21;6.20;52.70
3736;DHT22;1883;48.202;16.310;2024-02-16T07:26:51;6.30;52.60
3736;DHT22;1883;48.202;16.310;2024-02-16T07:29:19;6.40;52.80
3736;DHT22;1883;48.202;16.310;2024-02-16T07:31:46;6.40;53.00
3736;DHT22;1883;48.202;16.310;2024-02-16T07:34:15;6.40;53.30
3736;DHT22;1883;48.202;16.310;2024-02-16T07:36:43;6.50;53.10
3736;DHT22;1883;48.202;16.310;2024-02-16T07:39:24;6.50;53.20
3736;DHT22;1883;48.202;16.310;2024-02-16T07:41:53;6.60;53.40
3736;DHT22;1883;48.202;16.310;2024-02-16T07:44:29;6.60;53.60
3736;DHT22;1883;48.202;16.310;2024-02-16T07:46:56;6.50;53.60
3736;DHT22;1883;48.202;16.310;2024-02-16T07:49:23;6.60;53.80
3736;DHT22;1883;48.202;16.310;2024-02-16T07:51:59;6.60;53.80
3736;DHT22;1883;48.202;16.310;2024-02-16T07:54:29;6.60;53.80
3736;DHT22;1883;48.202;16.310;2024-02-16T07:56:58;6.70;53.90
3736;DHT22;1883;48.202;16.310;2024-02-16T07:59:27;6.80;54.10
3736;DHT22;1883;48.202;16.310;2024-02-16T08:01:57;6.80;54.30
3736;DHT22;1883;48.202;16.310;2024-02-16T08:04:30;6.80;54.30
3736;DHT22;1883;48.202;16.310;2024-02-16T08:07:03;6.90;54.20
3736;DHT22;1883;48.202;16.310;2024-02-16T08:09:35;6.90;54.20
3736;DHT22;1883;48.202;16.310;2024-02-16T08:12:12;7.00;54.30
3736;DHT22;1883;48.202;16.310;2024-02-16T08:14:41;7.00;54.50
3736;DHT22;1883;48.202;16.310;2024-02-16T08:17:16;7.20;54.60
3736;DHT22;1883;48.202;16.310;2024-02-16T08:19:57;7.20;54.80
3736;DHT22;1883;48.202;16.310;2024-02-16T08:22:24;7.20;55.00
3736;DHT22;1883;48.202;16.310;2024-02-16T08:25:00;7.30;55.20
3736;DHT22;1883;48.202;16.310;2024-02-16T08:27:33;7.40;55.40
3736;DHT22;1883;48.202;16.310;2024-02-16T08:30:00;7.50;55.70
3736;DHT22;1883;48.202;16.310;2024-02-16T08:32:29;7.60;56.00
3736;DHT22;1883;48.202;16.310;2024-02-16T08:35:01;7.70;56.20
3736;DHT22;1883;48.202;16.310;2024-02-16T08:37:29;7.70;56.50
3736;DHT22;1883;48.202;16.310;2024-02-16T08:40:00;7.90;56.70
3736;DHT22;1883;48.202;16.310;2024-02-16T08:42:58;7.90;56.70
3736;DHT22;1883;48.202;16.310;2024-02-16T08:45:30;8.00;56.90
3736;DHT22;1883;48.202;16.310;2024-02-16T08:48:10;8.00;57.00
3736;DHT22;1883;48.202;16.310;2024-02-16T08:50:39;8.20;57.10
3736;DHT22;1883;48.202;16.310;2024-02-16T08:53:10;8.30;57.30
3736;DHT22;1883;48.202;16.310;2024-02-16T08:55:39;8.40;57.60
3736;DHT22;1883;48.202;16.310;2024-02-16T08:58:11;8.50;57.80
3736;DHT22;1883;48.202;16.310;2024-02-16T09:01:12;8.60;58.10
3736;DHT22;1883;48.202;16.310;2024-02-16T09:03:40;8.70;58.30
3736;DHT22;1883;48.202;16.310;2024-02-16T09:06:07;8.80;58.50
3736;DHT22;1883;48.202;16.310;2024-02-16T09:08:34;9.00;58.90
3736;DHT22;1883;48.202;16.310;2024-02-16T09:11:02;9.10;59.20
3736;DHT22;1883;48.202;16.310;2024-02-16T09:13:32;9.10;59.40
3736;DHT22;1883;48.202;16.310;2024-02-16T09:16:07;9.20;59.70
3736;DHT22;1883;48.202;16.310;2024-02-16T09:18:34;9.40;60.00
3736;DHT22;1883;48.202;16.310;2024-02-16T09:21:06;9.50;60.40
3736;DHT22;1883;48.202;16.310;2024-02-16T09:23:36;9.60;60.50
3736;DHT22;1883;48.202;16.310;2024-02-16T09:26:05;9.70;61.00
3736;DHT22;1883;48.202;16.310;2024-02-16T09:28:42;9.80;61.30
3736;DHT22;1883;48.202;16.310;2024-02-16T09:31:14;9.90;61.60
3736;DHT22;1883;48.202;16.310;2024-02-16T09:33:48;10.00;62.10
3736;DHT22;1883;48.202;16.310;2024-02-16T09:36:30;10.10;62.30
3736;DHT22;1883;48.202;16.310;2024-02-16T09:39:14;10.20;62.60
3736;DHT22;1883;48.202;16.310;2024-02-16T09:41:56;10.30;62.80
3736;DHT22;1883;48.202;16.310;2024-02-16T09:47:26;10.40;63.30
3736;DHT22;1883;48.202;16.310;2024-02-16T09:50:00;10.40;63.60
3736;DHT22;1883;48.202;16.310;2024-02-16T09:52:46;10.40;63.60
3736;DHT22;1883;48.202;16.310;2024-02-16T09:55:24;10.50;63.60
3736;DHT22;1883;48.202;16.310;2024-02-16T09:58:04;10.70;64.10
3736;DHT22;1883;48.202;16.310;2024-02-16T10:01:18;10.70;64.30
3736;DHT22;1883;48.202;16.310;2024-02-16T10:07:18;10.90;64.40
3736;DHT22;1883;48.202;16.310;2024-02-16T10:10:06;11.00;64.80
3736;DHT22;1883;48.202;16.310;2024-02-16T10:13:01;11.10;65.10
3736;DHT22;1883;48.202;16.310;2024-02-16T10:15:30;11.20;65.10
3736;DHT22;1883;48.202;16.310;2024-02-16T10:18:11;11.20;65.40
3736;DHT22;1883;48.202;16.310;2024-02-16T10:20:56;11.20;65.40
3736;DHT22;1883;48.202;16.310;2024-02-16T10:26:38;11.30;65.70
3736;DHT22;1883;48.202;16.310;2024-02-16T10:29:10;11.40;65.90
3736;DHT22;1883;48.202;16.310;2024-02-16T10:31:54;11.50;66.10
3736;DHT22;1883;48.202;16.310;2024-02-16T10:34:36;11.60;66.20
3736;DHT22;1883;48.202;16.310;2024-02-16T10:40:02;11.60;66.40
3736;DHT22;1883;48.202;16.310;2024-02-16T10:48:47;11.80;66.60
3736;DHT22;1883;48.202;16.310;2024-02-16T10:51:18;11.70;66.80
3736;DHT22;1883;48.202;16.310;2024-02-16T10:53:47;11.80;66.80
3736;DHT22;1883;48.202;16.310;2024-02-16T10:56:15;11.80;66.90
3736;DHT22;1883;48.202;16.310;2024-02-16T10:58:42;11.80;67.10
3736;DHT22;1883;48.202;16.310;2024-02-16T11:01:15;11.90;67.00
3736;DHT22;1883;48.202;16.310;2024-02-16T11:03:46;11.90;67.30
3736;DHT22;1883;48.202;16.310;2024-02-16T11:09:52;12.10;67.50
3736;DHT22;1883;48.202;16.310;2024-02-16T11:12:22;12.10;67.50
3736;DHT22;1883;48.202;16.310;2024-02-16T11:14:57;12.20;67.70
3736;DHT22;1883;48.202;16.310;2024-02-16T11:17:24;12.10;67.70
3736;DHT22;1883;48.202;16.310;2024-02-16T11:20:00;12.10;67.70
3736;DHT22;1883;48.202;16.310;2024-02-16T11:22:40;12.20;67.80
3736;DHT22;1883;48.202;16.310;2024-02-16T11:25:34;12.10;67.70
3736;DHT22;1883;48.202;16.310;2024-02-16T11:28:10;12.20;67.80
3736;DHT22;1883;48.202;16.310;2024-02-16T11:30:42;12.20;67.90
3736;DHT22;1883;48.202;16.310;2024-02-16T11:33:14;12.30;68.00
3736;DHT22;1883;48.202;16.310;2024-02-16T11:35:52;12.40;68.10
3736;DHT22;1883;48.202;16.310;2024-02-16T11:38:20;12.40;68.30
3736;DHT22;1883;48.202;16.310;2024-02-16T11:41:03;12.40;68.30
3736;DHT22;1883;48.202;16.310;2024-02-16T11:43:58;12.40;68.20
3736;DHT22;1883;48.202;16.310;2024-02-16T11:47:19;12.50;68.30
3736;DHT22;1883;48.202;16.310;2024-02-16T12:00:38;12.70;68.50
3736;DHT22;1883;48.202;16.310;2024-02-16T12:03:07;12.70;68.60
3736;DHT22;1883;48.202;16.310;2024-02-16T12:05:53;12.70;68.70
3736;DHT22;1883;48.202;16.310;2024-02-16T12:08:35;12.70;68.80
3736;DHT22;1883;48.202;16.310;2024-02-16T12:11:04;12.70;68.80
3736;DHT22;1883;48.202;16.310;2024-02-16T12:13:31;12.80;68.90
3736;DHT22;1883;48.202;16.310;2024-02-16T12:16:11;12.80;69.00
3736;DHT22;1883;48.202;16.310;2024-02-16T12:19:04;12.90;69.00
3736;DHT22;1883;48.202;16.310;2024-02-16T12:21:32;12.90;69.10
3736;DHT22;1883;48.202;16.310;2024-02-16T12:24:12;12.90;69.00
3736;DHT22;1883;48.202;16.310;2024-02-16T12:26:44;12.90;69.20
3736;DHT22;1883;48.202;16.310;2024-02-16T12:29:11;12.90;69.20
3736;DHT22;1883;48.202;16.310;2024-02-16T12:31:57;13.00;69.30
3736;DHT22;1883;48.202;16.310;2024-02-16T12:34:26;12.90;69.10
3736;DHT22;1883;48.202;16.310;2024-02-16T12:36:55;12.90;69.00
3736;DHT22;1883;48.202;16.310;2024-02-16T12:39:29;13.00;69.10
3736;DHT22;1883;48.202;16.310;2024-02-16T12:41:58;12.90;69.20
3736;DHT22;1883;48.202;16.310;2024-02-16T12:44:25;13.00;69.00
3736;DHT22;1883;48.202;16.310;2024-02-16T12:46:53;12.90;69.00
3736;DHT22;1883;48.202;16.310;2024-02-16T12:49:25;13.00;69.20
3736;DHT22;1883;48.202;16.310;2024-02-16T12:51:54;12.90;69.20
3736;DHT22;1883;48.202;16.310;2024-02-16T12:54:35;13.00;69.30
3736;DHT22;1883;48.202;16.310;2024-02-16T12:57:04;12.90;69.30
3736;DHT22;1883;48.202;16.310;2024-02-16T12:59:39;12.90;69.30
3736;DHT22;1883;48.202;16.310;2024-02-16T13:02:06;12.90;69.30
3736;DHT22;1883;48.202;16.310;2024-02-16T13:04:36;12.90;69.30
3736;DHT22;1883;48.202;16.310;2024-02-16T13:07:14;12.90;69.40
3736;DHT22;1883;48.202;16.310;2024-02-16T13:09:41;12.90;69.40
3736;DHT22;1883;48.202;16.310;2024-02-16T13:12:12;12.90;69.30
3736;DHT22;1883;48.202;16.310;2024-02-16T13:14:43;12.90;69.40
3736;DHT22;1883;48.202;16.310;2024-02-16T13:17:23;12.90;69.40
3736;DHT22;1883;48.202;16.310;2024-02-16T13:19:54;12.90;69.40
3736;DHT22;1883;48.202;16.310;2024-02-16T13:22:39;12.90;69.40
3736;DHT22;1883;48.202;16.310;2024-02-16T13:25:12;12.90;69.50
3736;DHT22;1883;48.202;16.310;2024-02-16T13:27:45;12.90;69.50
3736;DHT22;1883;48.202;16.310;2024-02-16T13:30:13;12.90;69.60
3736;DHT22;1883;48.202;16.310;2024-02-16T13:32:42;13.00;69.50
3736;DHT22;1883;48.202;16.310;2024-02-16T13:35:32;12.90;69.50
3736;DHT22;1883;48.202;16.310;2024-02-16T13:38:01;13.00;69.50
3736;DHT22;1883;48.202;16.310;2024-02-16T13:40:30;12.90;69.50
3736;DHT22;1883;48.202;16.310;2024-02-16T13:43:01;12.90;69.40
3736;DHT22;1883;48.202;16.310;2024-02-16T13:45:48;12.90;69.50
3736;DHT22;1883;48.202;16.310;2024-02-16T13:48:23;12.90;69.50
3736;DHT22;1883;48.202;16.310;2024-02-16T13:50:54;12.90;69.50
3736;DHT22;1883;48.202;16.310;2024-02-16T13:53:21;12.90;69.60
3736;DHT22;1883;48.202;16.310;2024-02-16T13:59:19;12.80;69.50
3736;DHT22;1883;48.202;16.310;2024-02-16T14:01:49;12.80;69.60
3736;DHT22;1883;48.202;16.310;2024-02-16T14:04:21;12.80;69.60
3736;DHT22;1883;48.202;16.310;2024-02-16T14:07:05;12.80;69.40
3736;DHT22;1883;48.202;16.310;2024-02-16T14:09:34;12.80;69.70
3736;DHT22;1883;48.202;16.310;2024-02-16T14:12:31;12.80;69.70
3736;DHT22;1883;48.202;16.310;2024-02-16T14:15:11;12.80;69.80
3736;DHT22;1883;48.202;16.310;2024-02-16T14:18:05;12.70;69.80
3736;DHT22;1883;48.202;16.310;2024-02-16T14:20:55;12.80;69.90
3736;DHT22;1883;48.202;16.310;2024-02-16T14:23:25;12.80;69.90
3736;DHT22;1883;48.202;16.310;2024-02-16T14:25:53;12.70;70.00
3736;DHT22;1883;48.202;16.310;2024-02-16T14:28:31;12.70;69.90
3736;DHT22;1883;48.202;16.310;2024-02-16T14:31:00;12.80;70.00
3736;DHT22;1883;48.202;16.310;2024-02-16T14:33:43;12.70;70.00
3736;DHT22;1883;48.202;16.310;2024-02-16T14:36:14;12.60;69.90
3736;DHT22;1883;48.202;16.310;2024-02-16T14:39:00;12.70;70.00
3736;DHT22;1883;48.202;16.310;2024-02-16T14:41:37;12.60;70.00
3736;DHT22;1883;48.202;16.310;2024-02-16T14:47:47;12.60;70.00
3736;DHT22;1883;48.202;16.310;2024-02-16T14:50:14;12.60;69.90
3736;DHT22;1883;48.202;16.310;2024-02-16T14:52:49;12.60;70.00
3736;DHT22;1883;48.202;16.310;2024-02-16T14:55:20;12.60;70.00
3736;DHT22;1883;48.202;16.310;2024-02-16T14:57:49;12.50;70.00
3736;DHT22;1883;48.202;16.310;2024-02-16T15:00:16;12.50;69.90
3736;DHT22;1883;48.202;16.310;2024-02-16T15:02:45;12.50;70.00
3736;DHT22;1883;48.202;16.310;2024-02-16T15:05:13;12.50;70.00
3736;DHT22;1883;48.202;16.310;2024-02-16T15:07:40;12.50;70.00
3736;DHT22;1883;48.202;16.310;2024-02-16T15:10:08;12.50;70.00
3736;DHT22;1883;48.202;16.310;2024-02-16T15:12:44;12.50;70.00
3736;DHT22;1883;48.202;16.310;2024-02-16T15:15:17;12.40;69.90
3736;DHT22;1883;48.202;16.310;2024-02-16T15:17:46;12.40;69.70
3736;DHT22;1883;48.202;16.310;2024-02-16T15:20:15;12.30;69.80
3736;DHT22;1883;48.202;16.310;2024-02-16T15:22:43;12.30;69.80
3736;DHT22;1883;48.202;16.310;2024-02-16T15:25:24;12.30;69.80
3736;DHT22;1883;48.202;16.310;2024-02-16T15:27:54;12.30;69.90
3736;DHT22;1883;48.202;16.310;2024-02-16T15:30:36;12.20;69.80
3736;DHT22;1883;48.202;16.310;2024-02-16T15:33:04;12.20;69.80
3736;DHT22;1883;48.202;16.310;2024-02-16T15:35:40;12.20;69.80
3736;DHT22;1883;48.202;16.310;2024-02-16T15:38:08;12.20;69.80
3736;DHT22;1883;48.202;16.310;2024-02-16T15:40:39;12.10;69.80
3736;DHT22;1883;48.202;16.310;2024-02-16T15:46:40;12.00;69.70
3736;DHT22;1883;48.202;16.310;2024-02-16T15:49:10;11.90;69.60
3736;DHT22;1883;48.202;16.310;2024-02-16T15:51:40;11.90;69.60
3736;DHT22;1883;48.202;16.310;2024-02-16T15:54:27;11.80;69.50
3736;DHT22;1883;48.202;16.310;2024-02-16T15:56:54;11.80;69.50
3736;DHT22;1883;48.202;16.310;2024-02-16T15:59:33;11.80;69.40
3736;DHT22;1883;48.202;16.310;2024-02-16T16:02:01;11.70;69.30
3736;DHT22;1883;48.202;16.310;2024-02-16T16:04:29;11.70;69.30
3736;DHT22;1883;48.202;16.310;2024-02-16T16:06:56;11.60;69.20
3736;DHT22;1883;48.202;16.310;2024-02-16T16:09:23;11.50;69.10
3736;DHT22;1883;48.202;16.310;2024-02-16T16:11:52;11.50;69.10
3736;DHT22;1883;48.202;16.310;2024-02-16T16:14:19;11.50;69.10
3736;DHT22;1883;48.202;16.310;2024-02-16T16:16:52;11.40;69.00
3736;DHT22;1883;48.202;16.310;2024-02-16T16:19:24;11.30;68.90
3736;DHT22;1883;48.202;16.310;2024-02-16T16:21:51;11.30;68.80
3736;DHT22;1883;48.202;16.310;2024-02-16T16:24:20;11.20;68.50
3736;DHT22;1883;48.202;16.310;2024-02-16T16:26:53;11.20;68.70
3736;DHT22;1883;48.202;16.310;2024-02-16T16:29:39;11.20;68.70
3736;DHT22;1883;48.202;16.310;2024-02-16T16:32:08;11.00;68.50
3736;DHT22;1883;48.202;16.310;2024-02-16T16:34:40;11.00;68.50
3736;DHT22;1883;48.202;16.310;2024-02-16T16:37:10;11.00;68.50
3736;DHT22;1883;48.202;16.310;2024-02-16T16:39:38;10.90;68.40
3736;DHT22;1883;48.202;16.310;2024-02-16T16:42:14;11.00;68.50
3736;DHT22;1883;48.202;16.310;2024-02-16T16:44:49;10.90;68.40
3736;DHT22;1883;48.202;16.310;2024-02-16T16:47:25;10.90;68.40
3736;DHT22;1883;48.202;16.310;2024-02-16T16:49:56;10.90;68.30
3736;DHT22;1883;48.202;16.310;2024-02-16T16:52:32;10.80;68.20
3736;DHT22;1883;48.202;16.310;2024-02-16T16:55:00;10.80;68.30
3736;DHT22;1883;48.202;16.310;2024-02-16T16:57:27;10.80;68.30
3736;DHT22;1883;48.202;16.310;2024-02-16T16:59:56;10.80;68.20
3736;DHT22;1883;48.202;16.310;2024-02-16T17:02:24;10.70;68.20
3736;DHT22;1883;48.202;16.310;2024-02-16T17:04:51;10.70;68.00